sensor_id;sensor_type;location;lat;lon;timestamp;pressure;altitude;pressure_sealevel;temperature;humidity
79671;BME280;69137;50.878;8.050;2023-05-07T00:02:08;98358.00;;;12.71;80.66
79671;BME280;69137;50.878;8.050;2023-05-07T00:04:34;98371.44;;;12.77;79.96
79671;BME280;69137;50.878;8.050;2023-05-07T00:07:03;98372.50;;;12.81;79.68
79671;BME280;69137;50.878;8.050;2023-05-07T00:09:28;98370.03;;;12.85;80.02
79671;BME280;69137;50.878;8.050;2023-05-07T00:11:54;98371.13;;;12.79;80.20
79671;BME280;69137;50.878;8.050;2023-05-07T00:14:19;98364.28;;;12.76;80.17
79671;BME280;69137;50.878;8.050;2023-05-07T00:16:46;98367.31;;;12.75;80.93
79671;BME280;69137;50.878;8.050;2023-05-07T00:19:11;98368.38;;;12.79;80.10
79671;BME280;69137;50.878;8.050;2023-05-07T00:21:37;98378.84;;;12.77;80.52
79671;BME280;69137;50.878;8.050;2023-05-07T00:24:02;98377.47;;;12.79;80.49
79671;BME280;69137;50.878;8.050;2023-05-07T00:26:28;98373.84;;;12.84;80.75
79671;BME280;69137;50.878;8.050;2023-05-07T00:28:53;98377.69;;;12.88;80.38
79671;BME280;69137;50.878;8.050;2023-05-07T00:31:19;98369.19;;;12.89;80.34
79671;BME280;69137;50.878;8.050;2023-05-07T00:33:44;98362.84;;;12.89;80.08
79671;BME280;69137;50.878;8.050;2023-05-07T00:36:10;98350.25;;;12.93;80.18
79671;BME280;69137;50.878;8.050;2023-05-07T00:38:35;98351.84;;;12.99;79.71
79671;BME280;69137;50.878;8.050;2023-05-07T00:41:01;98354.59;;;12.94;79.43
79671;BME280;69137;50.878;8.050;2023-05-07T00:43:27;98352.72;;;12.95;79.22
79671;BME280;69137;50.878;8.050;2023-05-07T00:45:53;98349.66;;;12.96;79.39
79671;BME280;69137;50.878;8.050;2023-05-07T00:48:19;98357.06;;;13.01;79.06
79671;BME280;69137;50.878;8.050;2023-05-07T00:50:45;98340.63;;;12.96;78.90
79671;BME280;69137;50.878;8.050;2023-05-07T00:53:11;98352.44;;;12.91;79.29
79671;BME280;69137;50.878;8.050;2023-05-07T00:55:38;98351.88;;;12.89;79.71
79671;BME280;69137;50.878;8.050;2023-05-07T00:58:03;98341.50;;;12.81;79.88
79671;BME280;69137;50.878;8.050;2023-05-07T01:00:28;98340.97;;;12.79;80.13
79671;BME280;69137;50.878;8.050;2023-05-07T01:02:54;98335.00;;;12.72;80.45
79671;BME280;69137;50.878;8.050;2023-05-07T01:05:20;98346.81;;;12.62;80.97
79671;BME280;69137;50.878;8.050;2023-05-07T01:07:47;98343.00;;;12.58;81.25
79671;BME280;69137;50.878;8.050;2023-05-07T01:10:14;98341.59;;;12.60;81.28
79671;BME280;69137;50.878;8.050;2023-05-07T01:12:40;98346.56;;;12.58;80.90
79671;BME280;69137;50.878;8.050;2023-05-07T01:15:07;98346.84;;;12.57;81.49
79671;BME280;69137;50.878;8.050;2023-05-07T01:17:35;98345.75;;;12.53;81.25
79671;BME280;69137;50.878;8.050;2023-05-07T01:20:01;98338.94;;;12.40;82.22
79671;BME280;69137;50.878;8.050;2023-05-07T01:22:31;98337.84;;;12.41;81.81
79671;BME280;69137;50.878;8.050;2023-05-07T01:24:58;98334.00;;;12.42;81.76
79671;BME280;69137;50.878;8.050;2023-05-07T01:27:25;98328.28;;;12.33;82.64
79671;BME280;69137;50.878;8.050;2023-05-07T01:29:50;98330.50;;;12.26;82.54
79671;BME280;69137;50.878;8.050;2023-05-07T01:32:18;98331.56;;;12.45;81.87
79671;BME280;69137;50.878;8.050;2023-05-07T01:34:48;98334.00;;;12.47;81.35
79671;BME280;69137;50.878;8.050;2023-05-07T01:37:14;98332.38;;;12.46;81.61
79671;BME280;69137;50.878;8.050;2023-05-07T01:39:42;98328.53;;;12.37;81.84
79671;BME280;69137;50.878;8.050;2023-05-07T01:42:08;98325.00;;;12.36;81.93
79671;BME280;69137;50.878;8.050;2023-05-07T01:44:33;98320.88;;;12.39;81.42
79671;BME280;69137;50.878;8.050;2023-05-07T01:46:59;98324.72;;;12.38;81.86
79671;BME280;69137;50.878;8.050;2023-05-07T01:49:25;98328.03;;;12.35;81.57
79671;BME280;69137;50.878;8.050;2023-05-07T01:51:51;98334.59;;;12.34;81.21
79671;BME280;69137;50.878;8.050;2023-05-07T01:54:16;98321.19;;;12.32;81.17
79671;BME280;69137;50.878;8.050;2023-05-07T01:56:42;98323.34;;;12.40;80.67
79671;BME280;69137;50.878;8.050;2023-05-07T01:59:07;98320.84;;;12.44;80.57
79671;BME280;69137;50.878;8.050;2023-05-07T02:01:33;98329.06;;;12.49;81.07
79671;BME280;69137;50.878;8.050;2023-05-07T02:03:58;98332.03;;;12.58;81.14
79671;BME280;69137;50.878;8.050;2023-05-07T02:06:23;98325.69;;;12.67;80.76
79671;BME280;69137;50.878;8.050;2023-05-07T02:08:49;98330.56;;;12.76;79.12
79671;BME280;69137;50.878;8.050;2023-05-07T02:11:14;98328.97;;;12.70;79.64
79671;BME280;69137;50.878;8.050;2023-05-07T02:13:40;98337.19;;;12.70;79.76
79671;BME280;69137;50.878;8.050;2023-05-07T02:16:06;98333.88;;;12.73;79.80
79671;BME280;69137;50.878;8.050;2023-05-07T02:18:32;98338.38;;;12.53;80.66
79671;BME280;69137;50.878;8.050;2023-05-07T02:20:57;98339.44;;;12.52;80.10
79671;BME280;69137;50.878;8.050;2023-05-07T02:23:22;98332.94;;;12.43;80.12
79671;BME280;69137;50.878;8.050;2023-05-07T02:25:48;98332.94;;;12.38;80.99
79671;BME280;69137;50.878;8.050;2023-05-07T02:28:13;98327.16;;;12.44;80.82
79671;BME280;69137;50.878;8.050;2023-05-07T02:30:39;98334.50;;;12.59;80.45
79671;BME280;69137;50.878;8.050;2023-05-07T02:33:05;98339.69;;;12.66;79.70
79671;BME280;69137;50.878;8.050;2023-05-07T02:35:31;98342.09;;;12.73;79.27
79671;BME280;69137;50.878;8.050;2023-05-07T02:37:57;98337.75;;;12.72;79.50
79671;BME280;69137;50.878;8.050;2023-05-07T02:40:22;98346.84;;;12.57;80.19
79671;BME280;69137;50.878;8.050;2023-05-07T02:42:47;98346.59;;;12.53;80.24
79671;BME280;69137;50.878;8.050;2023-05-07T02:45:13;98353.19;;;12.42;80.66
79671;BME280;69137;50.878;8.050;2023-05-07T02:47:39;98345.78;;;12.42;81.13
79671;BME280;69137;50.878;8.050;2023-05-07T02:50:05;98346.34;;;12.39;80.45
79671;BME280;69137;50.878;8.050;2023-05-07T02:52:31;98348.25;;;12.44;80.26
79671;BME280;69137;50.878;8.050;2023-05-07T02:54:56;98349.94;;;12.35;80.26
79671;BME280;69137;50.878;8.050;2023-05-07T02:57:22;98349.94;;;12.35;80.99
79671;BME280;69137;50.878;8.050;2023-05-07T02:59:47;98339.53;;;12.27;81.51
79671;BME280;69137;50.878;8.050;2023-05-07T03:02:12;98345.28;;;12.35;80.81
79671;BME280;69137;50.878;8.050;2023-05-07T03:04:39;98339.25;;;12.33;81.33
79671;BME280;69137;50.878;8.050;2023-05-07T03:07:05;98335.69;;;12.33;81.60
79671;BME280;69137;50.878;8.050;2023-05-07T03:09:30;98329.34;;;12.37;81.22
79671;BME280;69137;50.878;8.050;2023-05-07T03:11:56;98336.19;;;12.45;80.58
79671;BME280;69137;50.878;8.050;2023-05-07T03:14:22;98332.34;;;12.51;80.49
79671;BME280;69137;50.878;8.050;2023-05-07T03:16:47;98326.91;;;12.41;81.22
79671;BME280;69137;50.878;8.050;2023-05-07T03:19:12;98332.06;;;12.48;81.18
79671;BME280;69137;50.878;8.050;2023-05-07T03:21:38;98329.88;;;12.50;81.36
79671;BME280;69137;50.878;8.050;2023-05-07T03:24:03;98319.16;;;12.58;80.39
79671;BME280;69137;50.878;8.050;2023-05-07T03:26:29;98326.28;;;12.59;80.35
79671;BME280;69137;50.878;8.050;2023-05-07T03:28:54;98321.41;;;12.46;80.33
79671;BME280;69137;50.878;8.050;2023-05-07T03:31:20;98328.50;;;12.47;80.64
79671;BME280;69137;50.878;8.050;2023-05-07T03:34:04;98317.06;;;12.35;81.05
79671;BME280;69137;50.878;8.050;2023-05-07T03:36:29;98316.78;;;12.31;81.04
79671;BME280;69137;50.878;8.050;2023-05-07T03:38:55;98312.97;;;12.32;80.95
79671;BME280;69137;50.878;8.050;2023-05-07T03:41:21;98317.91;;;12.30;81.27
79671;BME280;69137;50.878;8.050;2023-05-07T03:43:46;98311.91;;;12.18;82.11
79671;BME280;69137;50.878;8.050;2023-05-07T03:46:11;98309.19;;;12.13;82.37
79671;BME280;69137;50.878;8.050;2023-05-07T03:48:37;98311.38;;;12.11;82.28
79671;BME280;69137;50.878;8.050;2023-05-07T03:51:03;98313.03;;;12.07;82.70
79671;BME280;69137;50.878;8.050;2023-05-07T03:53:28;98311.09;;;12.12;82.18
79671;BME280;69137;50.878;8.050;2023-05-07T03:55:54;98307.56;;;12.12;82.20
79671;BME280;69137;50.878;8.050;2023-05-07T03:58:19;98310.56;;;12.10;82.26
79671;BME280;69137;50.878;8.050;2023-05-07T04:00:44;98317.41;;;12.08;82.18
79671;BME280;69137;50.878;8.050;2023-05-07T04:03:10;98310.00;;;12.13;81.69
79671;BME280;69137;50.878;8.050;2023-05-07T04:05:36;98325.63;;;12.13;82.02
79671;BME280;69137;50.878;8.050;2023-05-07T04:08:01;98331.91;;;12.08;82.43
79671;BME280;69137;50.878;8.050;2023-05-07T04:10:27;98328.63;;;12.06;82.66
79671;BME280;69137;50.878;8.050;2023-05-07T04:12:55;98335.19;;;12.15;82.22
79671;BME280;69137;50.878;8.050;2023-05-07T04:15:22;98324.81;;;12.12;82.05
79671;BME280;69137;50.878;8.050;2023-05-07T04:17:48;98330.25;;;12.17;82.32
79671;BME280;69137;50.878;8.050;2023-05-07T04:20:15;98334.06;;;12.27;81.85
79671;BME280;69137;50.878;8.050;2023-05-07T04:22:42;98332.44;;;12.26;81.60
79671;BME280;69137;50.878;8.050;2023-05-07T04:25:08;98335.97;;;12.31;81.11
79671;BME280;69137;50.878;8.050;2023-05-07T04:27:34;98339.25;;;12.38;80.58
79671;BME280;69137;50.878;8.050;2023-05-07T04:30:00;98340.59;;;12.41;80.45
79671;BME280;69137;50.878;8.050;2023-05-07T04:32:26;98334.81;;;12.42;80.70
79671;BME280;69137;50.878;8.050;2023-05-07T04:34:52;98341.94;;;12.49;80.58
79671;BME280;69137;50.878;8.050;2023-05-07T04:37:17;98341.66;;;12.45;81.26
79671;BME280;69137;50.878;8.050;2023-05-07T04:39:42;98343.34;;;12.41;81.24
79671;BME280;69137;50.878;8.050;2023-05-07T04:42:08;98336.50;;;12.33;81.47
79671;BME280;69137;50.878;8.050;2023-05-07T04:44:34;98337.06;;;12.30;81.90
79671;BME280;69137;50.878;8.050;2023-05-07T04:47:00;98340.63;;;12.31;81.90
79671;BME280;69137;50.878;8.050;2023-05-07T04:49:26;98341.47;;;12.26;82.33
79671;BME280;69137;50.878;8.050;2023-05-07T04:51:52;98340.38;;;12.27;82.28
79671;BME280;69137;50.878;8.050;2023-05-07T04:54:17;98350.47;;;12.32;82.53
79671;BME280;69137;50.878;8.050;2023-05-07T04:56:42;98356.47;;;12.44;82.00
79671;BME280;69137;50.878;8.050;2023-05-07T04:59:08;98352.59;;;12.50;81.98
79671;BME280;69137;50.878;8.050;2023-05-07T05:01:33;98361.66;;;12.56;81.22
79671;BME280;69137;50.878;8.050;2023-05-07T05:03:58;98355.59;;;12.64;81.19
79671;BME280;69137;50.878;8.050;2023-05-07T05:06:25;98362.94;;;12.74;81.19
79671;BME280;69137;50.878;8.050;2023-05-07T05:08:51;98362.94;;;12.74;81.27
79671;BME280;69137;50.878;8.050;2023-05-07T05:11:16;98355.53;;;12.74;81.41
79671;BME280;69137;50.878;8.050;2023-05-07T05:13:42;98358.56;;;12.73;81.09
79671;BME280;69137;50.878;8.050;2023-05-07T05:16:07;98362.91;;;12.79;80.92
79671;BME280;69137;50.878;8.050;2023-05-07T05:18:33;98366.19;;;12.81;80.74
79671;BME280;69137;50.878;8.050;2023-05-07T05:20:58;98370.28;;;12.88;80.31
79671;BME280;69137;50.878;8.050;2023-05-07T05:23:23;98369.97;;;12.95;80.83
79671;BME280;69137;50.878;8.050;2023-05-07T05:25:49;98374.38;;;12.91;80.22
79671;BME280;69137;50.878;8.050;2023-05-07T05:28:14;98371.06;;;12.94;80.63
79671;BME280;69137;50.878;8.050;2023-05-07T05:30:40;98372.16;;;12.93;81.05
79671;BME280;69137;50.878;8.050;2023-05-07T05:33:05;98374.31;;;13.01;80.67
79671;BME280;69137;50.878;8.050;2023-05-07T05:35:31;98368.34;;;12.89;80.44
79671;BME280;69137;50.878;8.050;2023-05-07T05:37:57;98369.97;;;12.95;80.42
79671;BME280;69137;50.878;8.050;2023-05-07T05:40:22;98374.28;;;13.06;80.10
79671;BME280;69137;50.878;8.050;2023-05-07T05:42:47;98377.56;;;13.08;79.62
79671;BME280;69137;50.878;8.050;2023-05-07T05:45:13;98370.94;;;13.15;80.27
79671;BME280;69137;50.878;8.050;2023-05-07T05:47:38;98379.72;;;13.17;79.64
79671;BME280;69137;50.878;8.050;2023-05-07T05:50:06;98380.50;;;13.27;79.18
79671;BME280;69137;50.878;8.050;2023-05-07T05:52:31;98376.09;;;13.31;78.61
79671;BME280;69137;50.878;8.050;2023-05-07T05:54:57;98376.84;;;13.42;78.66
79671;BME280;69137;50.878;8.050;2023-05-07T05:57:22;98385.53;;;13.60;78.02
79671;BME280;69137;50.878;8.050;2023-05-07T05:59:48;98381.63;;;13.66;78.22
79671;BME280;69137;50.878;8.050;2023-05-07T06:02:13;98386.38;;;13.89;77.56
79671;BME280;69137;50.878;8.050;2023-05-07T06:04:39;98380.56;;;13.96;77.25
79671;BME280;69137;50.878;8.050;2023-05-07T06:07:05;98370.88;;;14.04;76.24
79671;BME280;69137;50.878;8.050;2023-05-07T06:09:30;98374.28;;;14.19;74.62
79671;BME280;69137;50.878;8.050;2023-05-07T06:11:56;98370.91;;;14.28;74.87
79671;BME280;69137;50.878;8.050;2023-05-07T06:14:21;98378.34;;;14.51;73.36
79671;BME280;69137;50.878;8.050;2023-05-07T06:16:46;98386.56;;;14.56;72.63
79671;BME280;69137;50.878;8.050;2023-05-07T06:19:12;98386.72;;;14.65;72.24
79671;BME280;69137;50.878;8.050;2023-05-07T06:21:38;98385.56;;;14.71;72.20
79671;BME280;69137;50.878;8.050;2023-05-07T06:24:04;98387.13;;;14.77;71.99
79671;BME280;69137;50.878;8.050;2023-05-07T06:26:29;98394.97;;;14.89;71.40
79671;BME280;69137;50.878;8.050;2023-05-07T06:28:55;98391.25;;;14.99;70.80
79671;BME280;69137;50.878;8.050;2023-05-07T06:31:20;98391.06;;;15.14;69.76
79671;BME280;69137;50.878;8.050;2023-05-07T06:33:46;98385.81;;;15.18;69.72
79671;BME280;69137;50.878;8.050;2023-05-07T06:36:12;98377.53;;;15.18;69.93
79671;BME280;69137;50.878;8.050;2023-05-07T06:38:37;98379.03;;;15.10;69.60
79671;BME280;69137;50.878;8.050;2023-05-07T06:41:03;98380.19;;;15.04;69.80
79671;BME280;69137;50.878;8.050;2023-05-07T06:43:28;98393.00;;;15.14;69.60
79671;BME280;69137;50.878;8.050;2023-05-07T06:45:54;98390.53;;;15.12;68.93
79671;BME280;69137;50.878;8.050;2023-05-07T06:48:19;98392.59;;;15.01;69.85
79671;BME280;69137;50.878;8.050;2023-05-07T06:50:45;98401.03;;;15.10;69.94
79671;BME280;69137;50.878;8.050;2023-05-07T06:53:10;98407.97;;;15.26;69.20
79671;BME280;69137;50.878;8.050;2023-05-07T06:55:36;98415.34;;;15.50;69.08
79671;BME280;69137;50.878;8.050;2023-05-07T06:58:03;98411.09;;;15.77;67.24
79671;BME280;69137;50.878;8.050;2023-05-07T07:00:29;98412.84;;;16.05;65.84
79671;BME280;69137;50.878;8.050;2023-05-07T07:02:55;98406.13;;;16.11;65.17
79671;BME280;69137;50.878;8.050;2023-05-07T07:05:20;98405.72;;;16.18;65.05
79671;BME280;69137;50.878;8.050;2023-05-07T07:07:46;98410.84;;;16.25;64.54
79671;BME280;69137;50.878;8.050;2023-05-07T07:10:23;98405.69;;;16.37;64.23
79671;BME280;69137;50.878;8.050;2023-05-07T07:12:49;98411.09;;;16.42;63.87
79671;BME280;69137;50.878;8.050;2023-05-07T07:15:15;98413.03;;;16.42;63.87
79671;BME280;69137;50.878;8.050;2023-05-07T07:17:41;98415.31;;;16.53;63.55
79671;BME280;69137;50.878;8.050;2023-05-07T07:20:07;98418.34;;;16.38;63.93
79671;BME280;69137;50.878;8.050;2023-05-07T07:22:32;98414.97;;;16.55;63.10
79671;BME280;69137;50.878;8.050;2023-05-07T07:24:58;98411.63;;;16.72;62.14
79671;BME280;69137;50.878;8.050;2023-05-07T07:27:23;98418.41;;;16.79;61.59
79671;BME280;69137;50.878;8.050;2023-05-07T07:29:49;98420.63;;;16.91;61.97
79671;BME280;69137;50.878;8.050;2023-05-07T07:32:14;98412.28;;;17.10;61.87
79671;BME280;69137;50.878;8.050;2023-05-07T07:34:40;98417.47;;;17.12;61.18
79671;BME280;69137;50.878;8.050;2023-05-07T07:37:05;98417.88;;;17.19;61.50
79671;BME280;69137;50.878;8.050;2023-05-07T07:39:34;98413.50;;;17.18;60.30
79671;BME280;69137;50.878;8.050;2023-05-07T07:42:02;98416.66;;;17.11;60.05
79671;BME280;69137;50.878;8.050;2023-05-07T07:44:28;98420.22;;;17.12;59.88
79671;BME280;69137;50.878;8.050;2023-05-07T07:46:53;98415.03;;;17.10;60.13
79671;BME280;69137;50.878;8.050;2023-05-07T07:49:19;98417.16;;;17.13;60.33
79671;BME280;69137;50.878;8.050;2023-05-07T07:51:44;98415.81;;;17.24;60.00
79671;BME280;69137;50.878;8.050;2023-05-07T07:54:10;98422.16;;;17.11;60.12
79671;BME280;69137;50.878;8.050;2023-05-07T07:56:36;98425.16;;;17.15;59.81
79671;BME280;69137;50.878;8.050;2023-05-07T07:59:01;98424.31;;;17.28;60.27
79671;BME280;69137;50.878;8.050;2023-05-07T08:01:29;98431.16;;;17.17;60.43
79671;BME280;69137;50.878;8.050;2023-05-07T08:03:55;98421.25;;;17.16;60.59
79671;BME280;69137;50.878;8.050;2023-05-07T08:06:20;98419.38;;;17.25;59.96
79671;BME280;69137;50.878;8.050;2023-05-07T08:08:46;98432.75;;;17.45;59.51
79671;BME280;69137;50.878;8.050;2023-05-07T08:11:11;98437.03;;;17.52;59.40
79671;BME280;69137;50.878;8.050;2023-05-07T08:13:37;98429.91;;;17.73;59.39
79671;BME280;69137;50.878;8.050;2023-05-07T08:16:04;98427.34;;;17.90;58.69
79671;BME280;69137;50.878;8.050;2023-05-07T08:18:29;98435.16;;;17.97;59.03
79671;BME280;69137;50.878;8.050;2023-05-07T08:20:55;98430.06;;;18.13;58.03
79671;BME280;69137;50.878;8.050;2023-05-07T08:23:21;98443.47;;;18.20;57.41
79671;BME280;69137;50.878;8.050;2023-05-07T08:25:47;98436.88;;;18.07;56.95
79671;BME280;69137;50.878;8.050;2023-05-07T08:28:12;98437.63;;;18.21;57.97
79671;BME280;69137;50.878;8.050;2023-05-07T08:30:37;98440.75;;;18.28;57.27
79671;BME280;69137;50.878;8.050;2023-05-07T08:33:06;98432.03;;;18.12;57.00
79671;BME280;69137;50.878;8.050;2023-05-07T08:35:33;98427.91;;;18.01;57.84
79671;BME280;69137;50.878;8.050;2023-05-07T08:37:58;98433.44;;;18.01;58.63
79671;BME280;69137;50.878;8.050;2023-05-07T08:40:25;98427.19;;;18.18;58.17
79671;BME280;69137;50.878;8.050;2023-05-07T08:42:52;98428.91;;;18.37;57.67
79671;BME280;69137;50.878;8.050;2023-05-07T08:45:19;98428.50;;;18.21;57.36
79671;BME280;69137;50.878;8.050;2023-05-07T08:47:51;98424.19;;;18.06;58.29
79671;BME280;69137;50.878;8.050;2023-05-07T08:50:20;98423.59;;;18.18;58.19
79671;BME280;69137;50.878;8.050;2023-05-07T08:52:46;98426.44;;;18.26;57.90
79671;BME280;69137;50.878;8.050;2023-05-07T08:55:12;98428.66;;;18.47;58.46
79671;BME280;69137;50.878;8.050;2023-05-07T08:57:38;98428.53;;;18.52;57.46
79671;BME280;69137;50.878;8.050;2023-05-07T09:00:04;98432.25;;;18.47;58.06
79671;BME280;69137;50.878;8.050;2023-05-07T09:02:32;98436.56;;;18.62;56.86
79671;BME280;69137;50.878;8.050;2023-05-07T09:04:57;98446.88;;;18.70;56.68
79671;BME280;69137;50.878;8.050;2023-05-07T09:07:23;98453.69;;;18.73;56.61
79671;BME280;69137;50.878;8.050;2023-05-07T09:09:50;98445.38;;;18.73;56.63
79671;BME280;69137;50.878;8.050;2023-05-07T09:12:15;98443.72;;;18.63;56.32
79671;BME280;69137;50.878;8.050;2023-05-07T09:14:40;98447.75;;;18.80;56.55
79671;BME280;69137;50.878;8.050;2023-05-07T09:17:06;98436.38;;;18.90;55.97
79671;BME280;69137;50.878;8.050;2023-05-07T09:19:31;98440.16;;;18.94;55.38
79671;BME280;69137;50.878;8.050;2023-05-07T09:22:01;98437.06;;;18.95;55.65
79671;BME280;69137;50.878;8.050;2023-05-07T09:24:27;98436.63;;;19.19;55.15
79671;BME280;69137;50.878;8.050;2023-05-07T09:26:57;98435.72;;;19.50;54.57
79671;BME280;69137;50.878;8.050;2023-05-07T09:29:23;98424.81;;;19.62;54.39
79671;BME280;69137;50.878;8.050;2023-05-07T09:31:48;98420.75;;;19.51;56.36
79671;BME280;69137;50.878;8.050;2023-05-07T09:34:14;98421.25;;;19.97;54.05
79671;BME280;69137;50.878;8.050;2023-05-07T09:36:39;98418.81;;;20.04;53.24
79671;BME280;69137;50.878;8.050;2023-05-07T09:39:05;98418.50;;;20.05;52.10
79671;BME280;69137;50.878;8.050;2023-05-07T09:41:30;98426.97;;;20.09;52.00
79671;BME280;69137;50.878;8.050;2023-05-07T09:43:59;98425.81;;;20.10;52.30
79671;BME280;69137;50.878;8.050;2023-05-07T09:46:29;98421.72;;;20.07;52.86
79671;BME280;69137;50.878;8.050;2023-05-07T09:48:57;98415.22;;;19.86;52.97
79671;BME280;69137;50.878;8.050;2023-05-07T09:51:51;98420.94;;;19.81;52.34
79671;BME280;69137;50.878;8.050;2023-05-07T09:54:17;98409.50;;;20.17;52.60
79671;BME280;69137;50.878;8.050;2023-05-07T09:56:48;98418.91;;;20.42;51.27
79671;BME280;69137;50.878;8.050;2023-05-07T09:59:20;98414.31;;;20.46;51.80
79671;BME280;69137;50.878;8.050;2023-05-07T10:01:46;98412.69;;;20.54;53.03
79671;BME280;69137;50.878;8.050;2023-05-07T10:04:12;98413.66;;;20.58;50.91
79671;BME280;69137;50.878;8.050;2023-05-07T10:06:40;98403.56;;;20.45;51.47
79671;BME280;69137;50.878;8.050;2023-05-07T10:09:06;98408.59;;;20.51;51.09
79671;BME280;69137;50.878;8.050;2023-05-07T10:11:35;98405.66;;;20.65;50.70
79671;BME280;69137;50.878;8.050;2023-05-07T10:14:01;98409.97;;;20.37;52.51
79671;BME280;69137;50.878;8.050;2023-05-07T10:16:32;98405.03;;;20.42;51.60
79671;BME280;69137;50.878;8.050;2023-05-07T10:19:04;98410.34;;;20.73;50.99
79671;BME280;69137;50.878;8.050;2023-05-07T10:21:30;98412.13;;;20.78;48.83
79671;BME280;69137;50.878;8.050;2023-05-07T10:24:20;98406.78;;;20.73;50.78
79671;BME280;69137;50.878;8.050;2023-05-07T10:26:50;98410.22;;;20.61;51.45
79671;BME280;69137;50.878;8.050;2023-05-07T10:29:45;98410.09;;;20.58;51.21
79671;BME280;69137;50.878;8.050;2023-05-07T10:32:40;98411.47;;;20.81;50.52
79671;BME280;69137;50.878;8.050;2023-05-07T10:35:17;98404.53;;;20.96;48.63
79671;BME280;69137;50.878;8.050;2023-05-07T10:37:45;98410.56;;;20.98;48.26
79671;BME280;69137;50.878;8.050;2023-05-07T10:40:11;98411.59;;;20.85;47.42
79671;BME280;69137;50.878;8.050;2023-05-07T10:42:37;98406.84;;;20.94;46.57
79671;BME280;69137;50.878;8.050;2023-05-07T10:45:13;98411.34;;;21.07;46.01
79671;BME280;69137;50.878;8.050;2023-05-07T10:48:09;98419.63;;;21.16;47.12
79671;BME280;69137;50.878;8.050;2023-05-07T10:50:35;98409.50;;;21.11;47.92
79671;BME280;69137;50.878;8.050;2023-05-07T10:58:39;98401.84;;;20.79;48.38
79671;BME280;69137;50.878;8.050;2023-05-07T11:01:04;98403.03;;;20.99;48.31
79671;BME280;69137;50.878;8.050;2023-05-07T11:03:30;98411.97;;;21.13;48.41
79671;BME280;69137;50.878;8.050;2023-05-07T11:06:24;98403.63;;;21.13;49.49
79671;BME280;69137;50.878;8.050;2023-05-07T11:08:57;98409.28;;;21.25;48.73
79671;BME280;69137;50.878;8.050;2023-05-07T11:11:45;98402.31;;;21.40;47.38
79671;BME280;69137;50.878;8.050;2023-05-07T11:14:11;98398.63;;;21.57;46.27
79671;BME280;69137;50.878;8.050;2023-05-07T11:16:37;98404.06;;;21.74;46.36
79671;BME280;69137;50.878;8.050;2023-05-07T11:19:03;98404.19;;;21.57;45.95
79671;BME280;69137;50.878;8.050;2023-05-07T11:21:39;98400.25;;;21.58;47.73
79671;BME280;69137;50.878;8.050;2023-05-07T11:24:09;98405.47;;;21.38;48.03
79671;BME280;69137;50.878;8.050;2023-05-07T11:26:48;98399.03;;;21.17;48.36
79671;BME280;69137;50.878;8.050;2023-05-07T11:29:18;98403.03;;;20.99;48.80
79671;BME280;69137;50.878;8.050;2023-05-07T11:31:44;98402.22;;;20.98;47.99
79671;BME280;69137;50.878;8.050;2023-05-07T11:34:36;98401.88;;;21.38;47.41
79671;BME280;69137;50.878;8.050;2023-05-07T11:37:02;98393.75;;;21.54;47.22
79671;BME280;69137;50.878;8.050;2023-05-07T11:39:30;98386.69;;;21.77;47.39
79671;BME280;69137;50.878;8.050;2023-05-07T11:42:00;98399.00;;;21.89;47.86
79671;BME280;69137;50.878;8.050;2023-05-07T11:44:41;98396.84;;;21.73;47.39
79671;BME280;69137;50.878;8.050;2023-05-07T11:47:07;98393.34;;;21.43;47.70
79671;BME280;69137;50.878;8.050;2023-05-07T11:49:34;98392.66;;;21.46;48.02
79671;BME280;69137;50.878;8.050;2023-05-07T11:51:59;98386.06;;;21.30;47.86
79671;BME280;69137;50.878;8.050;2023-05-07T11:54:25;98392.84;;;21.41;49.22
79671;BME280;69137;50.878;8.050;2023-05-07T11:56:51;98386.88;;;21.22;49.01
79671;BME280;69137;50.878;8.050;2023-05-07T11:59:17;98382.53;;;20.91;48.50
79671;BME280;69137;50.878;8.050;2023-05-07T12:01:45;98388.88;;;20.91;48.90
79671;BME280;69137;50.878;8.050;2023-05-07T12:04:11;98386.97;;;20.83;49.56
79671;BME280;69137;50.878;8.050;2023-05-07T12:06:36;98399.06;;;20.79;49.85
79671;BME280;69137;50.878;8.050;2023-05-07T12:09:03;98396.03;;;20.63;49.98
79671;BME280;69137;50.878;8.050;2023-05-07T12:11:29;98401.66;;;20.75;50.62
79671;BME280;69137;50.878;8.050;2023-05-07T12:13:54;98394.38;;;20.70;49.88
79671;BME280;69137;50.878;8.050;2023-05-07T12:16:20;98402.91;;;20.48;50.61
79671;BME280;69137;50.878;8.050;2023-05-07T12:18:46;98393.75;;;20.47;50.21
79671;BME280;69137;50.878;8.050;2023-05-07T12:21:12;98398.38;;;20.35;50.47
79671;BME280;69137;50.878;8.050;2023-05-07T12:23:38;98399.84;;;20.23;50.42
79671;BME280;69137;50.878;8.050;2023-05-07T12:26:04;98400.16;;;20.30;50.46
79671;BME280;69137;50.878;8.050;2023-05-07T12:28:29;98399.34;;;20.30;50.15
79671;BME280;69137;50.878;8.050;2023-05-07T12:30:56;98402.81;;;20.18;49.96
79671;BME280;69137;50.878;8.050;2023-05-07T12:33:26;98400.38;;;20.17;49.60
79671;BME280;69137;50.878;8.050;2023-05-07T12:35:55;98406.22;;;20.15;49.94
79671;BME280;69137;50.878;8.050;2023-05-07T12:38:21;98409.00;;;20.24;51.61
79671;BME280;69137;50.878;8.050;2023-05-07T12:40:49;98401.53;;;20.16;52.55
79671;BME280;69137;50.878;8.050;2023-05-07T12:43:20;98399.22;;;20.18;55.44
79671;BME280;69137;50.878;8.050;2023-05-07T12:45:49;98408.53;;;20.04;55.37
79671;BME280;69137;50.878;8.050;2023-05-07T12:48:15;98405.13;;;19.99;55.00
79671;BME280;69137;50.878;8.050;2023-05-07T12:50:41;98416.06;;;19.95;56.44
79671;BME280;69137;50.878;8.050;2023-05-07T12:53:07;98404.66;;;19.79;57.29
79671;BME280;69137;50.878;8.050;2023-05-07T12:55:44;98405.59;;;19.57;59.17
79671;BME280;69137;50.878;8.050;2023-05-07T12:58:21;98406.41;;;19.49;59.14
79671;BME280;69137;50.878;8.050;2023-05-07T13:00:49;98414.38;;;19.59;57.37
79671;BME280;69137;50.878;8.050;2023-05-07T13:03:27;98406.56;;;19.44;59.61
79671;BME280;69137;50.878;8.050;2023-05-07T13:05:53;98410.78;;;19.50;60.76